Latest Weather Observations for Walpeup

IDV60801

Issued at 3:42 pm EST Wednesday 20 June 2018 (issued every 10 minutes, with the page automatically refreshed every 10 minutes)

About weather observations | Map of weather stations | Latest weather observations for VIC | Other Formats
Station Details ID: 076064 Name: WALPEUP RESEARCH Lat: -35.12 Lon: 142.00 Height: 105.0 m
Data from the previous 72 hours. | See also: Recent months at Walpeup
Date/Time
EST
Temp
°C
App
Temp
°C
Dew
Point
°C
Rel
Hum
%
Delta-T
°C
Wind Press
QNH
hPa
Press
MSL
hPa
Rain since
9am
mm
Dir  Spd
km/h
Gust
km/h
Spd
kts
Gust
kts
20/03:30pm 11.7 8.7 4.2 60 3.4 N 9 15 5 8 - - 0.0
20/03:00pm 11.3 7.9 3.8 60 3.3 NNW 11 17 6 9 - - 0.0
20/02:30pm 11.3 7.9 3.8 60 3.3 N 11 15 6 8 - - 0.0
20/02:00pm 11.0 7.6 4.0 62 3.1 N 11 15 6 8 - - 0.0
20/01:30pm 11.1 7.8 4.3 63 3.1 NNE 11 15 6 8 - - 0.0
20/01:00pm 10.2 7.3 4.4 67 2.6 NNE 9 13 5 7 - - 0.0
20/12:30pm 9.2 5.8 3.8 69 2.4 NNE 11 15 6 8 - - 0.0
20/12:00pm 8.4 5.3 3.7 72 2.0 NNE 9 13 5 7 - - 0.0
20/11:30am 7.8 4.3 3.5 74 1.8 NNE 11 17 6 9 - - 0.0
20/11:00am 7.4 3.9 3.5 76 1.7 NNE 11 15 6 8 - - 0.0
20/10:30am 6.6 3.0 3.0 78 1.5 NNE 11 15 6 8 - - 0.0
20/10:00am 6.2 2.6 2.8 79 1.4 NNE 11 17 6 9 - - 0.0
20/09:30am 6.0 2.3 2.6 79 1.4 NE 11 15 6 8 - - 0.0
20/09:00am 5.5 1.4 2.5 81 1.2 NE 13 17 7 9 - - 0.0
20/08:30am 5.1 1.4 2.5 83 1.1 NE 11 15 6 8 - - 0.0
20/08:00am 4.9 0.8 2.4 84 1.0 NE 13 17 7 9 - - 0.0
20/07:30am 4.7 0.6 2.2 84 1.0 NE 13 15 7 8 - - 0.0
20/07:00am 4.7 0.6 2.2 84 1.0 NE 13 17 7 9 - - 0.0
20/06:30am 5.0 1.4 3.0 87 0.8 NE 11 13 6 7 - - 0.0
20/06:00am 4.6 0.9 2.6 87 0.8 ENE 11 13 6 7 - - 0.0
20/05:30am 4.5 0.8 2.4 86 0.8 ENE 11 13 6 7 - - 0.0
20/05:00am 4.9 1.3 2.8 86 0.9 NE 11 13 6 7 - - 0.0
20/04:30am 5.1 1.9 2.8 85 0.9 ENE 9 11 5 6 - - 0.0
20/04:00am 5.3 1.6 2.5 82 1.1 ENE 11 13 6 7 - - 0.0
20/03:30am 6.3 3.1 2.8 78 1.5 NE 9 13 5 7 - - 0.0
20/03:00am 6.3 3.5 3.1 80 1.3 NNE 7 9 4 5 - - 0.0
20/02:30am 5.9 3.1 2.9 81 1.2 NE 7 9 4 5 - - 0.0
20/02:00am 5.7 3.0 2.4 79 1.4 NNE 6 7 3 4 - - 0.0
20/01:30am 6.8 4.0 2.9 76 1.6 NNE 7 9 4 5 - - 0.0
20/01:00am 6.9 4.1 3.0 76 1.6 NNE 7 9 4 5 - - 0.0
20/12:30am 6.6 3.4 2.9 77 1.5 N 9 11 5 6 - - 0.0
20/12:00am 6.8 3.6 3.1 77 1.6 N 9 11 5 6 - - 0.0
 
Date/Time
EST
Temp
°C
App
Temp
°C
Dew
Point
°C
Rel
Hum
%
Delta-T
°C
Wind Press
QNH
hPa
Press
MSL
hPa
Rain since
9am
mm
Dir  Spd
km/h
Gust
km/h
Spd
kts
Gust
kts
19/11:30pm 6.8 4.0 3.1 77 1.6 N 7 9 4 5 - - 0.0
19/11:00pm 7.2 4.4 2.9 74 1.8 NNE 7 9 4 5 - - 0.0
19/10:30pm 7.8 4.3 3.3 73 1.9 NNE 11 13 6 7 - - 0.0
19/10:00pm 7.3 4.5 3.2 75 1.7 NNE 7 9 4 5 - - 0.0
19/09:30pm 6.8 4.0 3.1 77 1.6 NNE 7 9 4 5 - - 0.0
19/09:00pm 7.1 4.3 3.0 75 1.7 NE 7 9 4 5 - - 0.0
19/08:30pm 7.8 4.6 3.1 72 2.0 NNE 9 9 5 5 - - 0.0
19/08:00pm 7.7 4.9 3.0 72 2.0 NNE 7 9 4 5 - - 0.0
19/07:30pm 7.5 4.6 2.8 72 2.0 NNE 7 9 4 5 - - 0.0
19/07:00pm 8.1 5.3 3.0 70 2.2 NNE 7 9 4 5 - - 0.0
19/06:30pm 8.1 5.3 3.2 71 2.1 N 7 7 4 4 - - 0.0
19/06:00pm 8.7 5.9 3.3 69 2.3 NNE 7 9 4 5 - - 0.0
19/05:30pm 8.9 6.2 3.7 70 2.3 N 7 7 4 4 - - 0.0
19/05:00pm 9.8 7.3 3.8 66 2.6 N 6 9 3 5 - - 0.0
19/04:30pm 11.1 8.6 3.9 61 3.2 N 6 9 3 5 - - 0.0
19/04:00pm 11.4 9.3 3.9 60 3.4 N 4 6 2 3 - - 0.0
19/03:30pm 12.2 10.0 3.4 55 3.9 NNW 4 7 2 4 - - 0.0
19/03:00pm 12.2 9.7 3.7 56 3.8 N 6 9 3 5 - - 0.0
19/02:30pm 12.2 9.7 3.9 57 3.7 NNE 6 9 3 5 - - 0.0
19/02:00pm 11.9 9.3 4.4 60 3.4 NNW 7 15 4 8 - - 0.0
19/01:30pm 11.2 8.5 3.5 59 3.4 N 7 11 4 6 - - 0.0
19/01:00pm 11.2 8.5 3.5 59 3.4 N 7 13 4 7 - - 0.0
19/12:30pm 10.4 7.6 3.4 62 3.1 N 7 11 4 6 - - 0.0
19/12:00pm 10.7 7.6 3.5 61 3.2 NNE 9 15 5 8 - - 0.0
19/11:30am 10.6 8.1 4.5 66 2.7 NE 7 11 4 6 - - 0.0
19/11:00am 9.6 7.0 4.0 68 2.5 ENE 7 11 4 6 - - 0.0
19/10:30am 9.2 6.6 4.0 70 2.3 ENE 7 9 4 5 - - 0.0
19/10:00am 8.8 6.7 5.7 81 1.4 ENE 6 7 3 4 - - 0.0
19/09:30am 5.3 4.2 5.2 99 0.0 CALM 0 0 0 0 - - 0.0
19/09:00am 3.5 2.0 3.2 98 0.1 CALM 0 2 0 1 - - 0.0
19/08:30am 1.7 -0.1 1.1 96 0.2 CALM 0 2 0 1 - - 0.0
19/08:00am 0.8 -2.0 -0.2 93 0.4 NW 4 4 2 2 - - 0.0
19/07:30am 1.0 -1.8 -0.1 92 0.4 WNW 4 7 2 4 - - 0.0
19/07:00am 2.2 -0.4 0.9 91 0.5 S 4 6 2 3 - - 0.0
19/06:30am 2.0 -0.3 0.2 88 0.7 W 2 2 1 1 - - 0.0
19/06:00am 3.5 0.5 1.9 89 0.6 SE 7 11 4 6 - - 0.0
19/05:30am 4.0 0.7 2.2 88 0.7 ESE 9 11 5 6 - - 0.0
19/05:00am 4.6 1.4 2.8 88 0.7 ESE 9 13 5 7 - - 0.0
19/04:30am 4.2 1.0 2.9 91 0.5 SE 9 9 5 5 - - 0.0
19/04:00am 3.6 0.8 2.3 91 0.5 SSE 6 7 3 4 - - 0.0
19/03:30am 3.4 1.7 1.8 89 0.6 CALM 0 0 0 0 - - 0.0
19/03:00am 3.1 1.3 1.3 88 0.7 CALM 0 0 0 0 - - 0.0
19/02:30am 3.9 1.5 2.3 89 0.6 SSW 4 4 2 2 - - 0.0
19/02:00am 3.7 1.3 2.2 90 0.6 S 4 6 2 3 - - 0.0
19/01:30am 3.0 1.2 1.1 87 0.7 CALM 0 2 0 1 - - 0.0
19/01:00am 3.4 0.8 1.0 84 0.9 W 4 4 2 2 - - 0.0
19/12:30am 4.4 1.5 1.6 82 1.1 SSW 6 7 3 4 - - 0.0
19/12:00am 4.7 1.7 2.1 83 1.0 S 7 9 4 5 - - 0.0
 
Date/Time
EST
Temp
°C
App
Temp
°C
Dew
Point
°C
Rel
Hum
%
Delta-T
°C
Wind Press
QNH
hPa
Press
MSL
hPa
Rain since
9am
mm
Dir  Spd
km/h
Gust
km/h
Spd
kts
Gust
kts
18/11:30pm 4.8 1.8 2.0 82 1.1 S 7 9 4 5 - - 0.0
18/11:00pm 5.0 3.0 2.4 83 1.1 WSW 2 2 1 1 - - 0.0
18/10:30pm 4.5 2.0 1.7 82 1.1 SW 4 6 2 3 - - 0.0
18/10:00pm 4.9 2.1 2.1 82 1.1 SSW 6 7 3 4 - - 0.0
18/09:30pm 5.1 2.2 2.6 84 1.0 SSW 7 7 4 4 - - 0.0
18/09:00pm 5.0 2.0 2.2 82 1.1 SSW 7 9 4 5 - - 0.0
18/08:30pm 5.8 2.2 3.0 82 1.2 S 11 13 6 7 - - 0.0
18/08:00pm 5.3 2.0 2.7 83 1.1 SSW 9 13 5 7 - - 0.0
18/07:30pm 6.1 2.9 2.9 80 1.3 SSW 9 11 5 6 - - 0.0
18/07:00pm 6.9 3.7 3.2 77 1.6 SSW 9 13 5 7 - - 0.0
18/06:30pm 7.3 4.1 2.8 73 1.9 SSW 9 13 5 7 - - 0.0
18/06:00pm 8.5 5.6 2.5 66 2.5 SW 7 11 4 6 - - 0.0
18/05:30pm 9.6 6.7 2.7 62 3.0 WSW 7 9 4 5 - - 0.0
18/05:00pm 11.4 8.6 3.2 57 3.6 SW 7 11 4 6 - - 0.0
18/04:30pm 12.4 9.2 3.1 53 4.1 SW 9 13 5 7 - - 0.0
18/04:00pm 13.2 10.0 3.3 51 4.4 WSW 9 15 5 8 - - 0.0
18/03:30pm 12.7 8.7 2.6 50 4.4 SW 13 17 7 9 - - 0.0
18/03:00pm 13.4 9.8 3.2 50 4.6 W 11 17 6 9 - - 0.0
18/02:30pm 13.1 9.9 3.2 51 4.4 SW 9 15 5 8 - - 0.0
18/02:00pm 12.7 9.6 3.4 53 4.2 SSW 9 13 5 7 - - 0.0
18/01:30pm 12.5 9.0 3.5 54 4.0 SW 11 17 6 9 - - 0.0
18/01:00pm 12.3 8.5 4.0 57 3.8 SSW 13 19 7 10 - - 0.0
18/12:30pm 12.1 8.0 4.1 58 3.6 S 15 20 8 11 - - 0.0
18/12:00pm 11.6 7.5 4.3 61 3.3 S 15 20 8 11 - - 0.0
18/11:30am 10.7 6.6 4.4 65 2.8 S 15 20 8 11 - - 0.0
18/11:00am 10.0 6.1 5.2 72 2.2 SSW 15 20 8 11 - - 0.0
18/10:30am 8.7 4.9 5.6 81 1.4 SSW 15 20 8 11 - - 0.0
18/10:00am 7.1 3.4 6.5 96 0.3 S 15 22 8 12 - - 0.0
18/09:30am 5.6 1.7 5.5 99 0.0 SSW 15 19 8 10 - - 0.0
18/09:00am 4.3 0.6 4.2 99 0.0 SSW 13 19 7 10 - - 0.0
18/08:30am 3.3 0.5 3.2 99 0.0 SSW 7 13 4 7 - - 0.0
18/08:00am 2.4 -0.6 2.3 99 0.0 SW 7 9 4 5 - - 0.0
18/07:30am 2.3 -0.5 2.2 99 0.0 SW 6 7 3 4 - - 0.0
18/07:00am 2.7 -0.6 2.6 99 0.0 SW 9 11 5 6 - - 0.0
18/06:30am 2.9 -0.3 2.8 99 0.0 WSW 9 13 5 7 - - 0.0
18/06:00am 3.0 -0.6 2.9 99 0.0 WSW 11 13 6 7 - - 0.0
18/05:30am 3.1 -0.1 2.8 98 0.1 WSW 9 13 5 7 - - 0.0
18/05:00am 3.5 0.3 3.2 98 0.1 SW 9 15 5 8 - - 0.0
18/04:30am 3.2 0.0 2.8 97 0.2 SW 9 13 5 7 - - 0.0
18/04:00am 3.2 0.3 2.6 96 0.2 SW 7 9 4 5 - - 0.0
18/03:30am 3.5 0.2 2.6 94 0.4 SW 9 11 5 6 - - 0.0
18/03:00am 4.3 0.8 3.4 94 0.4 SW 11 15 6 8 - - 0.0
18/02:30am 4.4 0.8 3.2 92 0.5 SW 11 15 6 8 - - 0.0
18/02:00am 4.7 1.2 3.4 91 0.5 SSW 11 13 6 7 - - 0.0
18/01:30am 5.3 1.5 3.8 90 0.6 SW 13 17 7 9 - - 0.0
18/01:00am 5.3 2.2 3.6 89 0.7 SW 9 13 5 7 - - 0.0
18/12:30am 5.9 2.1 4.1 88 0.8 SW 13 17 7 9 - - 0.0
18/12:00am 6.3 2.6 4.3 87 0.9 SW 13 20 7 11 - - 0.0
 
Date/Time
EST
Temp
°C
App
Temp
°C
Dew
Point
°C
Rel
Hum
%
Delta-T
°C
Wind Press
QNH
hPa
Press
MSL
hPa
Rain since
9am
mm
Dir  Spd
km/h
Gust
km/h
Spd
kts
Gust
kts
17/11:30pm 6.6 2.9 4.6 87 0.9 SW 13 19 7 10 - - 0.0
17/11:00pm 7.0 3.4 4.8 86 1.0 SW 13 19 7 10 - - 0.0
17/10:30pm 7.5 3.1 4.8 83 1.2 SW 17 22 9 12 - - 0.0
17/10:00pm 7.8 3.6 5.6 86 1.0 SW 17 24 9 13 - - 0.0
17/09:30pm 7.5 3.9 5.1 85 1.1 SW 13 17 7 9 - - 0.0
17/09:00pm 7.5 3.9 4.8 83 1.2 SW 13 17 7 9 - - 0.0
17/08:30pm 8.2 4.2 5.1 81 1.4 SW 15 22 8 12 - - 0.0
17/08:00pm 8.3 4.7 4.9 79 1.5 SW 13 19 7 10 - - 0.0
17/07:30pm 7.9 4.6 4.5 79 1.5 SW 11 13 6 7 - - 0.0
17/07:00pm 8.4 5.5 4.6 77 1.7 SW 9 11 5 6 - - 0.0
17/06:30pm 9.3 5.6 4.3 71 2.2 SW 13 17 7 9 - - 0.0
17/06:00pm 11.0 6.0 4.7 65 2.9 SW 20 32 11 17 - - 0.0
17/05:30pm 11.0 6.6 4.5 64 2.9 WSW 17 24 9 13 - - 0.0
17/05:00pm 11.3 6.4 4.1 61 3.2 SW 19 24 10 13 - - 0.0
17/04:30pm 12.1 7.4 5.3 63 3.2 SW 19 24 10 13 - - 0.0
17/04:00pm 12.7 7.0 5.1 60 3.5 SW 24 35 13 19 - - 0.0

Other Formats:

Comma delimited format used in spreadsheet applications
http://www.bom.gov.au/fwo/IDV60801/IDV60801.95831.axf

JavaScript Object Notation format (JSON) in row-major order
http://www.bom.gov.au/fwo/IDV60801/IDV60801.95831.json